Time;durP1;ratioP1;P1;durP2;ratioP2;P2;SDS_P1;SDS_P2;PMS_P1;PMS_P2;Temp;Humidity;BMP_temperature;BMP_pressure;BME280_temperature;BME280_humidity;BME280_pressure;Samples;Min_cycle;Max_cycle;Signal;HPM_P1;HPM_P2
2022/12/20 00:00:02;;;;;;;47.45;24.90;;;;;;;4.11;100.00;97059.06;4965684;28;20539;-48
2022/12/20 00:02:30;;;;;;;43.67;22.95;;;;;;;4.05;100.00;97063.69;4971629;28;20088;-45
2022/12/20 00:04:58;;;;;;;42.10;23.55;;;;;;;3.75;100.00;97058.50;4965774;28;20094;-49
2022/12/20 00:07:27;;;;;;;45.17;23.80;;;;;;;3.50;100.00;97050.38;4965612;28;20086;-44
2022/12/20 00:09:55;;;;;;;45.83;24.13;;;;;;;3.74;100.00;97050.75;4968801;28;20073;-42
2022/12/20 00:12:24;;;;;;;45.00;23.70;;;;;;;3.82;100.00;97059.00;4968168;28;20090;-46
2022/12/20 00:14:53;;;;;;;44.72;23.92;;;;;;;3.86;100.00;97057.06;4972816;28;20093;-43
2022/12/20 00:17:22;;;;;;;46.75;24.00;;;;;;;3.98;100.00;97062.38;4968304;28;20499;-43
2022/12/20 00:19:50;;;;;;;47.15;23.23;;;;;;;3.96;100.00;97077.31;4965082;28;20086;-49
2022/12/20 00:22:19;;;;;;;47.22;23.05;;;;;;;3.81;100.00;97078.16;4967183;28;20105;-47
2022/12/20 00:24:47;;;;;;;43.22;22.13;;;;;;;3.40;100.00;97073.50;4972945;28;20097;-45
2022/12/20 00:27:15;;;;;;;43.72;21.95;;;;;;;3.56;100.00;97065.69;4969047;28;20089;-47
2022/12/20 00:29:44;;;;;;;41.05;21.63;;;;;;;3.67;100.00;97052.03;4966057;28;20086;-47
2022/12/20 00:32:13;;;;;;;46.63;23.35;;;;;;;3.59;100.00;97041.22;4971392;28;20086;-43
2022/12/20 00:34:41;;;;;;;42.37;23.33;;;;;;;3.55;100.00;97045.75;4972447;28;20105;-44
2022/12/20 00:37:10;;;;;;;42.25;22.73;;;;;;;3.56;100.00;97037.84;4969033;28;20090;-46
2022/12/20 00:39:38;;;;;;;43.40;22.50;;;;;;;3.61;100.00;97053.22;4973907;28;20090;-48
2022/12/20 00:42:06;;;;;;;42.70;22.85;;;;;;;3.68;100.00;97053.69;4962535;28;20594;-42
2022/12/20 00:44:35;;;;;;;42.55;23.58;;;;;;;3.65;100.00;97053.88;4969861;28;20090;-43
2022/12/20 00:47:03;;;;;;;49.42;23.90;;;;;;;3.55;100.00;97049.19;4963969;28;20597;-45
2022/12/20 00:49:33;;;;;;;44.28;23.02;;;;;;;3.61;100.00;97047.16;4972806;28;20721;-44
2022/12/20 00:52:01;;;;;;;46.97;25.70;;;;;;;3.61;100.00;97037.56;4963694;28;20491;-49
2022/12/20 00:54:29;;;;;;;49.08;25.00;;;;;;;3.70;100.00;97041.44;4975381;28;20078;-43
2022/12/20 00:56:58;;;;;;;49.78;24.48;;;;;;;3.70;100.00;97039.66;4968915;28;20520;-46
2022/12/20 00:59:26;;;;;;;46.17;23.65;;;;;;;3.74;100.00;97035.94;4967992;28;20081;-49
2022/12/20 01:01:54;;;;;;;44.97;24.58;;;;;;;3.73;100.00;97036.03;4968516;28;20202;-47
2022/12/20 01:04:23;;;;;;;46.55;24.17;;;;;;;3.80;100.00;97032.16;4970747;28;20075;-45
2022/12/20 01:06:52;;;;;;;44.97;23.05;;;;;;;3.81;100.00;97041.63;4958325;28;20078;-43
2022/12/20 01:09:21;;;;;;;40.77;22.43;;;;;;;3.86;100.00;97036.19;4967530;28;20075;-44
2022/12/20 01:11:49;;;;;;;43.85;23.58;;;;;;;3.97;100.00;97034.59;4961160;28;20090;-48
2022/12/20 01:14:17;;;;;;;49.45;23.92;;;;;;;3.99;100.00;97040.59;4973754;28;20086;-45
2022/12/20 01:16:47;;;;;;;44.33;24.02;;;;;;;4.01;100.00;97027.44;4965608;28;20545;-47
2022/12/20 01:19:17;;;;;;;45.05;22.13;;;;;;;4.00;100.00;97036.22;4966694;28;20483;-44
2022/12/20 01:21:46;;;;;;;41.63;22.45;;;;;;;3.98;100.00;97038.06;4966667;28;20078;-51
2022/12/20 01:24:16;;;;;;;43.63;23.55;;;;;;;3.94;100.00;97033.94;4965722;28;20098;-45
2022/12/20 01:26:45;;;;;;;40.90;22.98;;;;;;;3.94;100.00;97039.16;4963715;28;20748;-42
2022/12/20 01:29:14;;;;;;;56.28;25.92;;;;;;;3.91;100.00;97045.41;4971592;28;20086;-51
2022/12/20 01:31:42;;;;;;;42.42;23.67;;;;;;;3.99;100.00;97043.19;4966348;28;20095;-49
2022/12/20 01:34:11;;;;;;;44.90;23.50;;;;;;;3.96;100.00;97045.16;4967718;28;20077;-45
2022/12/20 01:36:39;;;;;;;48.58;26.20;;;;;;;3.97;100.00;97028.56;4968358;28;20099;-43
2022/12/20 01:39:11;;;;;;;48.03;24.55;;;;;;;4.03;100.00;97030.81;4970176;28;20079;-44
2022/12/20 01:41:41;;;;;;;43.13;22.73;;;;;;;3.94;100.00;97031.34;4966530;28;20094;-42
2022/12/20 01:44:43;;;;;;;40.97;23.38;;;;;;;3.98;100.00;97022.41;4969233;28;20085;-48
2022/12/20 01:47:12;;;;;;;40.05;21.30;;;;;;;3.89;100.00;97023.78;4962855;28;20097;-43
2022/12/20 01:49:43;;;;;;;41.55;22.30;;;;;;;3.91;100.00;97021.91;4965247;28;20090;-49
2022/12/20 01:52:13;;;;;;;39.17;22.17;;;;;;;4.03;100.00;97025.59;4964299;28;20087;-46
2022/12/20 01:54:44;;;;;;;44.17;24.15;;;;;;;4.09;100.00;97020.00;4970453;28;20086;-48
2022/12/20 01:57:16;;;;;;;41.53;22.10;;;;;;;4.12;100.00;97025.03;4969031;28;20078;-43
2022/12/20 01:59:46;;;;;;;41.95;21.67;;;;;;;4.11;100.00;97022.53;4966796;28;20079;-50
2022/12/20 02:02:15;;;;;;;40.53;22.65;;;;;;;4.15;100.00;97024.84;4970677;28;20470;-44
2022/12/20 02:04:43;;;;;;;41.15;21.77;;;;;;;4.14;100.00;97012.75;4969145;28;20128;-49
2022/12/20 02:07:14;;;;;;;45.40;21.65;;;;;;;4.17;100.00;97011.72;4966718;28;20086;-46
2022/12/20 02:09:42;;;;;;;43.03;22.05;;;;;;;4.14;100.00;97006.69;4967219;28;20090;-45
2022/12/20 02:12:12;;;;;;;42.42;21.70;;;;;;;4.11;100.00;97006.88;4961166;28;20091;-44
2022/12/20 02:14:55;;;;;;;42.85;22.05;;;;;;;4.11;100.00;97007.69;4955924;28;20086;-44
2022/12/20 02:17:29;;;;;;;42.97;22.20;;;;;;;4.21;100.00;97021.03;4964727;28;20828;-48
2022/12/20 02:20:11;;;;;;;41.03;23.00;;;;;;;4.25;100.00;97012.94;4963236;28;20086;-47
2022/12/20 02:22:51;;;;;;;37.75;21.23;;;;;;;4.33;100.00;97004.63;4960377;28;20078;-43
2022/12/20 02:25:35;;;;;;;39.78;21.75;;;;;;;4.37;100.00;97011.38;4961985;28;20089;-42
2022/12/20 02:28:14;;;;;;;42.85;22.48;;;;;;;4.42;100.00;97003.25;4964438;28;20082;-47
2022/12/20 02:30:46;;;;;;;42.70;22.40;;;;;;;4.43;100.00;97008.34;4966399;28;20339;-45
2022/12/20 02:33:15;;;;;;;45.28;22.15;;;;;;;4.44;100.00;97010.06;4960498;28;20057;-45
2022/12/20 02:35:43;;;;;;;39.00;20.92;;;;;;;4.35;100.00;96996.72;4972603;28;20090;-46
2022/12/20 02:38:27;;;;;;;40.00;22.05;;;;;;;4.42;100.00;96998.03;4963519;28;20071;-43
2022/12/20 02:40:58;;;;;;;40.30;22.08;;;;;;;4.39;100.00;96999.03;4960481;28;20079;-45
2022/12/20 02:46:15;;;;;;;38.95;21.60;;;;;;;4.28;100.00;96994.47;4960585;28;20094;-51
2022/12/20 02:48:45;;;;;;;37.65;21.42;;;;;;;4.22;100.00;96999.22;4971951;28;20093;-47
2022/12/20 02:51:14;;;;;;;40.75;22.00;;;;;;;4.11;100.00;97007.69;4958277;28;20587;-50
2022/12/20 02:53:43;;;;;;;43.60;22.80;;;;;;;4.24;100.00;96992.16;4962826;28;20097;-48
2022/12/20 02:56:14;;;;;;;38.85;21.38;;;;;;;4.36;100.00;97001.00;4968254;28;20086;-49
2022/12/20 02:58:47;;;;;;;39.67;20.63;;;;;;;4.35;100.00;96994.94;4956901;28;20081;-46
2022/12/20 03:01:21;;;;;;;41.97;21.60;;;;;;;4.41;100.00;96991.13;4960479;28;20483;-43
2022/12/20 03:03:51;;;;;;;40.28;22.20;;;;;;;4.43;100.00;97002.31;4969239;28;20078;-47
2022/12/20 03:06:19;;;;;;;44.25;22.63;;;;;;;4.41;100.00;96996.34;4954927;28;20558;-43
2022/12/20 03:08:47;;;;;;;38.95;22.30;;;;;;;4.40;100.00;96992.88;4968737;28;20085;-45
2022/12/20 03:11:16;;;;;;;41.15;22.17;;;;;;;4.35;100.00;96996.72;4958364;28;20535;-45
2022/12/20 03:13:44;;;;;;;38.47;21.60;;;;;;;4.32;100.00;96976.84;4967240;28;20089;-46
2022/12/20 03:16:12;;;;;;;41.95;21.88;;;;;;;4.32;100.00;96982.06;4968728;28;20082;-43
2022/12/20 03:18:44;;;;;;;42.20;21.45;;;;;;;4.35;100.00;96988.88;4969613;28;20098;-48
2022/12/20 03:21:12;;;;;;;44.25;21.85;;;;;;;4.15;100.00;96984.88;4966994;28;20071;-50
2022/12/20 03:23:40;;;;;;;36.50;21.38;;;;;;;4.19;100.00;96989.78;4964817;28;20074;-45
2022/12/20 03:26:08;;;;;;;38.15;21.60;;;;;;;4.17;100.00;96986.47;4965313;28;20550;-47
2022/12/20 03:28:37;;;;;;;39.88;21.85;;;;;;;4.21;100.00;96994.94;4965490;28;20074;-45
2022/12/20 03:31:05;;;;;;;40.42;21.67;;;;;;;4.15;100.00;96988.31;4955405;28;20148;-48
2022/12/20 03:33:34;;;;;;;41.75;22.83;;;;;;;3.99;100.00;96988.41;4961441;28;20097;-47
2022/12/20 03:36:04;;;;;;;44.13;23.63;;;;;;;4.03;100.00;96982.06;4962748;28;20081;-43
2022/12/20 03:38:32;;;;;;;42.45;23.10;;;;;;;3.98;100.00;96984.09;4956756;28;20128;-47
2022/12/20 03:41:00;;;;;;;42.58;22.70;;;;;;;4.25;100.00;96972.94;4963675;28;20448;-47
2022/12/20 03:43:28;;;;;;;42.28;22.08;;;;;;;4.35;100.00;96965.38;4961440;28;20127;-45
2022/12/20 03:45:57;;;;;;;42.03;23.25;;;;;;;4.03;100.00;96953.34;4961116;28;20614;-45
2022/12/20 03:48:25;;;;;;;40.55;21.77;;;;;;;3.84;100.00;96950.16;4968776;28;20105;-42
2022/12/20 03:50:53;;;;;;;42.10;22.48;;;;;;;3.81;100.00;96948.56;4969173;28;20086;-45
2022/12/20 03:53:23;;;;;;;45.92;23.33;;;;;;;3.95;100.00;96936.47;4960588;28;20082;-44
2022/12/20 03:55:51;;;;;;;39.97;22.17;;;;;;;3.70;100.00;96943.16;4960879;28;20087;-53
2022/12/20 03:58:19;;;;;;;42.63;22.33;;;;;;;4.03;100.00;96952.53;4955208;28;20070;-45
2022/12/20 04:00:48;;;;;;;40.08;21.67;;;;;;;4.18;100.00;96948.13;4961249;28;20484;-53
2022/12/20 04:03:16;;;;;;;45.40;23.02;;;;;;;4.37;100.00;96940.00;4968146;28;20078;-45
2022/12/20 04:05:45;;;;;;;40.00;21.42;;;;;;;4.55;100.00;96932.81;4969023;28;20086;-50
2022/12/20 04:08:13;;;;;;;41.08;21.48;;;;;;;4.63;100.00;96941.84;4966332;28;20085;-48
2022/12/20 04:13:25;;;;;;;39.53;22.23;;;;;;;4.75;100.00;96948.94;4964558;28;20507;-51
2022/12/20 04:15:53;;;;;;;37.55;21.45;;;;;;;4.74;100.00;96951.63;4966846;28;21023;-50
2022/12/20 04:18:27;;;;;;;37.22;21.17;;;;;;;4.46;100.00;96971.63;4963171;28;20557;-48
2022/12/20 04:20:56;;;;;;;40.35;21.17;;;;;;;4.47;100.00;96978.53;4962613;28;20094;-45
2022/12/20 04:23:24;;;;;;;40.65;21.77;;;;;;;4.48;100.00;96969.75;4965704;28;20090;-47
2022/12/20 04:25:54;;;;;;;39.30;21.27;;;;;;;4.49;100.00;96976.66;4965311;28;20087;-45
2022/12/20 04:28:22;;;;;;;37.40;21.67;;;;;;;4.32;100.00;96976.00;4965067;28;20543;-45
2022/12/20 04:30:50;;;;;;;36.90;21.35;;;;;;;4.39;100.00;96966.88;4961700;28;20086;-45
2022/12/20 04:33:18;;;;;;;38.75;22.45;;;;;;;4.34;100.00;96961.94;4962759;28;20079;-46
2022/12/20 04:35:47;;;;;;;40.70;22.02;;;;;;;4.33;100.00;96955.03;4967383;28;20087;-47
2022/12/20 04:38:15;;;;;;;39.35;21.90;;;;;;;4.38;100.00;96950.38;4957911;28;20531;-44
2022/12/20 04:40:43;;;;;;;41.28;21.75;;;;;;;4.36;100.00;96948.78;4960128;28;20091;-48
2022/12/20 04:43:13;;;;;;;39.83;20.73;;;;;;;4.38;100.00;96952.16;4960122;28;20075;-47
2022/12/20 04:45:43;;;;;;;41.53;22.60;;;;;;;4.34;100.00;96951.50;4966218;28;20699;-43
2022/12/20 04:48:11;;;;;;;39.70;22.00;;;;;;;4.31;100.00;96954.28;4960989;28;20082;-49
2022/12/20 04:50:59;;;;;;;40.63;21.20;;;;;;;4.37;100.00;96946.09;4968570;28;20074;-44
2022/12/20 04:56:14;;;;;;;40.17;21.35;;;;;;;3.98;100.00;96931.91;4964794;28;20097;-46
2022/12/20 04:58:44;;;;;;;40.13;21.40;;;;;;;4.28;100.00;96936.22;4957751;28;20098;-43
2022/12/20 05:01:13;;;;;;;42.58;22.58;;;;;;;4.34;100.00;96935.84;4971033;28;20089;-46
2022/12/20 05:03:42;;;;;;;37.25;20.92;;;;;;;4.40;100.00;96932.00;4971154;28;20074;-50
2022/12/20 05:06:10;;;;;;;39.03;22.00;;;;;;;4.44;100.00;96931.72;4971599;28;20541;-43
2022/12/20 05:08:38;;;;;;;40.63;21.67;;;;;;;4.25;100.00;96925.94;4967001;28;20478;-47
2022/12/20 05:11:07;;;;;;;45.00;23.05;;;;;;;4.09;100.00;96919.97;4964818;28;20539;-44
2022/12/20 05:13:35;;;;;;;40.35;21.45;;;;;;;3.99;100.00;96910.13;4963615;28;20082;-43
2022/12/20 05:16:05;;;;;;;36.53;21.33;;;;;;;3.92;100.00;96910.56;4968234;28;20569;-48
2022/12/20 05:18:34;;;;;;;44.38;22.88;;;;;;;3.84;100.00;96905.81;4960291;28;20615;-46
2022/12/20 05:26:37;;;;;;;63.17;38.30;;;;;;;3.96;100.00;96893.81;4961878;28;20526;-45
2022/12/20 05:29:06;;;;;;;39.22;21.75;;;;;;;4.23;100.00;96893.88;4968619;28;20094;-46
2022/12/20 05:31:36;;;;;;;38.03;21.60;;;;;;;4.61;100.00;96891.50;4969122;28;20071;-42
2022/12/20 05:34:04;;;;;;;37.43;23.07;;;;;;;4.88;100.00;96891.47;4964333;28;20087;-41
2022/12/20 05:36:32;;;;;;;42.40;22.45;;;;;;;4.94;100.00;96888.47;4966783;28;20502;-45
2022/12/20 05:39:01;;;;;;;39.53;22.65;;;;;;;4.95;100.00;96882.31;4967813;28;20706;-41
2022/12/20 05:41:32;;;;;;;40.88;21.65;;;;;;;4.84;100.00;96894.41;4974483;28;20097;-45
2022/12/20 05:44:00;;;;;;;39.42;22.17;;;;;;;4.61;100.00;96888.88;4966185;28;20071;-42
2022/12/20 05:46:29;;;;;;;40.38;22.13;;;;;;;4.72;100.00;96894.25;4969608;28;20115;-47
2022/12/20 05:48:58;;;;;;;43.22;21.75;;;;;;;4.75;100.00;96886.22;4962445;28;20078;-42
2022/12/20 05:51:27;;;;;;;35.97;21.20;;;;;;;4.53;100.00;96878.06;4966148;28;20472;-43
2022/12/20 05:53:55;;;;;;;35.60;21.35;;;;;;;4.80;100.00;96880.69;4959815;28;20095;-46
2022/12/20 05:56:23;;;;;;;37.63;22.38;;;;;;;4.54;100.00;96879.72;4972338;28;20709;-46
2022/12/20 05:58:52;;;;;;;38.55;22.13;;;;;;;4.76;100.00;96877.44;4965625;28;20519;-45
2022/12/20 06:01:20;;;;;;;39.78;22.38;;;;;;;4.90;100.00;96873.94;4968217;28;20561;-48
2022/12/20 06:03:49;;;;;;;39.80;22.65;;;;;;;4.91;100.00;96870.38;4965801;28;20089;-45
2022/12/20 06:06:19;;;;;;;39.63;22.40;;;;;;;4.81;100.00;96877.13;4967574;28;20109;-45
2022/12/20 06:08:48;;;;;;;38.80;21.57;;;;;;;4.72;100.00;96867.28;4964712;28;20105;-43
2022/12/20 06:11:16;;;;;;;37.90;21.95;;;;;;;4.14;100.00;96878.78;4965277;28;20082;-42
2022/12/20 06:13:44;;;;;;;41.20;21.63;;;;;;;4.60;100.00;96865.47;4967269;28;20087;-44
2022/12/20 06:16:12;;;;;;;39.55;20.92;;;;;;;4.24;100.00;96869.47;4967111;28;20075;-44
2022/12/20 06:18:41;;;;;;;38.33;22.15;;;;;;;4.56;100.00;96871.81;4966295;28;20494;-43
2022/12/20 06:21:09;;;;;;;39.00;21.20;;;;;;;4.64;100.00;96859.94;4974048;28;20105;-47
2022/12/20 06:23:39;;;;;;;45.60;24.05;;;;;;;4.55;100.00;96872.75;4955381;28;20106;-42
2022/12/20 06:26:08;;;;;;;43.85;24.13;;;;;;;4.65;100.00;96863.41;4963789;28;20090;-46
2022/12/20 06:28:41;;;;;;;39.67;21.67;;;;;;;4.70;100.00;96874.38;4954361;28;20659;-43
2022/12/20 06:31:10;;;;;;;39.92;20.35;;;;;;;4.72;100.00;96880.34;4967337;28;20086;-47
2022/12/20 06:33:39;;;;;;;37.53;20.35;;;;;;;4.80;100.00;96891.16;4961684;28;20101;-41
2022/12/20 06:36:07;;;;;;;41.88;20.48;;;;;;;4.49;100.00;96880.03;4965385;28;20086;-41
2022/12/20 06:38:36;;;;;;;39.67;19.80;;;;;;;4.37;100.00;96883.44;4955986;28;20734;-46
2022/12/20 06:41:05;;;;;;;39.63;18.55;;;;;;;4.53;100.00;96896.34;4963082;28;20090;-46
2022/12/20 06:43:34;;;;;;;39.33;21.10;;;;;;;4.44;100.00;96892.56;4956711;28;20079;-47
2022/12/20 06:46:02;;;;;;;38.35;20.30;;;;;;;4.19;100.00;96880.16;4956244;28;20087;-44
2022/12/20 06:48:31;;;;;;;36.60;19.77;;;;;;;3.97;100.00;96880.66;4953030;28;20079;-41
2022/12/20 06:50:59;;;;;;;39.22;22.13;;;;;;;3.97;100.00;96885.88;4960821;28;20095;-42
2022/12/20 06:53:27;;;;;;;36.45;21.90;;;;;;;4.50;100.00;96889.53;4962052;28;20085;-44
2022/12/20 06:55:55;;;;;;;43.13;23.35;;;;;;;3.91;100.00;96880.19;4963669;28;20074;-44
2022/12/20 06:58:25;;;;;;;45.22;23.58;;;;;;;3.80;100.00;96871.25;4961117;28;20475;-48
2022/12/20 07:00:54;;;;;;;43.97;22.48;;;;;;;4.08;100.00;96873.94;4964530;28;20539;-47
2022/12/20 07:03:23;;;;;;;38.58;21.00;;;;;;;4.21;100.00;96878.31;4957606;28;20087;-41
2022/12/20 07:05:52;;;;;;;37.72;21.77;;;;;;;4.61;100.00;96867.13;4960293;28;20079;-43
2022/12/20 07:08:21;;;;;;;41.40;22.63;;;;;;;4.50;100.00;96871.25;4958050;28;20109;-41
2022/12/20 07:10:51;;;;;;;42.05;24.77;;;;;;;4.25;100.00;96869.34;4960545;28;20082;-47
2022/12/20 07:13:19;;;;;;;42.08;23.98;;;;;;;4.25;100.00;96866.75;4959675;28;20079;-45
2022/12/20 07:15:49;;;;;;;38.60;22.88;;;;;;;4.51;100.00;96861.66;4956238;28;20091;-43
2022/12/20 07:18:17;;;;;;;41.50;22.73;;;;;;;4.48;100.00;96867.91;4956855;28;20093;-42
2022/12/20 07:20:46;;;;;;;39.67;22.60;;;;;;;4.53;100.00;96865.84;4958450;28;20074;-46
2022/12/20 07:23:14;;;;;;;40.88;22.83;;;;;;;4.41;100.00;96865.81;4962131;28;20101;-47
2022/12/20 07:25:42;;;;;;;41.60;22.92;;;;;;;3.98;100.00;96868.44;4960128;28;20532;-45
2022/12/20 07:28:10;;;;;;;36.97;21.95;;;;;;;3.78;100.00;96873.09;4961294;28;20116;-44
2022/12/20 07:30:39;;;;;;;40.63;20.92;;;;;;;3.77;100.00;96870.59;4968247;28;20547;-46
2022/12/20 07:33:08;;;;;;;40.55;22.45;;;;;;;3.85;100.00;96876.16;4953151;28;20098;-41
2022/12/20 07:35:36;;;;;;;41.63;22.98;;;;;;;4.14;100.00;96877.03;4963516;28;20066;-49
2022/12/20 07:38:05;;;;;;;36.75;21.92;;;;;;;4.34;100.00;96877.56;4958661;28;20087;-45
2022/12/20 07:40:33;;;;;;;41.60;22.15;;;;;;;4.44;100.00;96878.63;4960384;28;20092;-45
2022/12/20 07:43:01;;;;;;;43.42;22.60;;;;;;;4.60;100.00;96875.91;4959985;28;20163;-46
2022/12/20 07:45:30;;;;;;;36.95;21.00;;;;;;;4.78;100.00;96884.34;4958276;28;20085;-45
2022/12/20 07:47:58;;;;;;;46.10;23.13;;;;;;;4.69;100.00;96884.00;4952692;28;20087;-43
2022/12/20 07:50:37;;;;;;;39.90;22.45;;;;;;;4.24;100.00;96879.91;4956040;28;20530;-48
2022/12/20 07:53:06;;;;;;;42.07;25.20;;;;;;;4.35;100.00;96869.63;4952423;28;20079;-47
2022/12/20 07:55:36;;;;;;;41.40;22.45;;;;;;;4.70;100.00;96875.22;4960203;28;20089;-44
2022/12/20 07:58:06;;;;;;;36.05;22.40;;;;;;;5.08;100.00;96882.34;4956946;28;20090;-47
2022/12/20 08:00:36;;;;;;;39.45;21.75;;;;;;;5.34;100.00;96885.03;4959594;28;20101;-44
2022/12/20 08:03:06;;;;;;;40.80;21.60;;;;;;;5.08;100.00;96891.97;4954760;28;20082;-42
2022/12/20 08:05:39;;;;;;;38.45;21.98;;;;;;;4.80;100.00;96874.63;4957287;28;20078;-43
2022/12/20 08:08:08;;;;;;;38.97;21.70;;;;;;;5.20;100.00;96878.94;4950870;28;20101;-48
2022/12/20 08:10:38;;;;;;;36.22;21.88;;;;;;;5.51;100.00;96878.69;4960469;28;20075;-42
2022/12/20 08:13:06;;;;;;;42.45;24.15;;;;;;;5.64;100.00;96877.75;4968329;28;20086;-44
2022/12/20 08:15:35;;;;;;;39.80;22.52;;;;;;;5.67;100.00;96874.06;4961154;28;20078;-46
2022/12/20 08:18:05;;;;;;;43.22;23.30;;;;;;;6.03;100.00;96881.22;4961136;28;21246;-45
2022/12/20 08:20:34;;;;;;;36.67;22.10;;;;;;;5.93;100.00;96877.56;4964166;28;20047;-47
2022/12/20 08:23:04;;;;;;;40.80;21.38;;;;;;;5.93;100.00;96878.41;4960745;28;20519;-41
2022/12/20 08:25:34;;;;;;;44.40;23.02;;;;;;;6.13;100.00;96879.66;4958070;28;20086;-44
2022/12/20 08:28:08;;;;;;;45.25;24.17;;;;;;;6.38;100.00;96872.69;4955211;28;20168;-45
2022/12/20 08:30:37;;;;;;;41.00;22.38;;;;;;;6.49;100.00;96875.38;4952810;28;20083;-48
2022/12/20 08:33:05;;;;;;;42.03;23.05;;;;;;;6.78;100.00;96880.31;4959833;28;20477;-43
2022/12/20 08:35:34;;;;;;;40.30;22.73;;;;;;;6.88;100.00;96876.06;4958839;28;20488;-45
2022/12/20 08:38:04;;;;;;;39.33;23.42;;;;;;;7.11;100.00;96861.28;4967227;28;20090;-41
2022/12/20 08:40:32;;;;;;;38.08;22.27;;;;;;;6.93;100.00;96873.97;4959930;28;20078;-42
2022/12/20 08:43:00;;;;;;;38.97;22.83;;;;;;;7.18;100.00;96861.66;4960566;28;20082;-42
2022/12/20 08:45:37;;;;;;;39.25;21.42;;;;;;;7.28;100.00;96847.75;4956963;28;20097;-44
2022/12/20 08:48:05;;;;;;;37.53;21.65;;;;;;;7.07;100.00;96857.22;4959827;28;20075;-51
2022/12/20 08:50:35;;;;;;;39.42;23.38;;;;;;;6.84;100.00;96862.34;4960427;28;20079;-45
2022/12/20 08:53:04;;;;;;;41.70;22.73;;;;;;;5.94;100.00;96853.91;4960384;28;20087;-41
2022/12/20 08:55:33;;;;;;;40.83;23.10;;;;;;;5.70;100.00;96861.63;4963205;28;20066;-42
2022/12/20 08:58:01;;;;;;;38.47;22.88;;;;;;;6.47;100.00;96861.56;4966327;28;20093;-42
2022/12/20 09:00:29;;;;;;;41.25;22.17;;;;;;;5.65;100.00;96853.25;4962992;28;20109;-45
2022/12/20 09:02:57;;;;;;;44.15;26.20;;;;;;;6.41;100.00;96870.69;4963909;28;20493;-44
2022/12/20 09:05:26;;;;;;;37.47;22.83;;;;;;;6.64;100.00;96878.66;4964900;28;20085;-44
2022/12/20 09:07:54;;;;;;;39.75;22.50;;;;;;;7.22;100.00;96858.69;4964983;28;20086;-39
2022/12/20 09:10:24;;;;;;;37.88;22.17;;;;;;;7.30;100.00;96858.97;4964630;28;20078;-43
2022/12/20 09:12:52;;;;;;;38.07;22.60;;;;;;;7.57;100.00;96849.97;4966366;28;20082;-45
2022/12/20 09:15:20;;;;;;;36.75;21.27;;;;;;;7.74;100.00;96851.31;4958266;28;20525;-44
2022/12/20 09:17:49;;;;;;;34.90;21.45;;;;;;;7.52;100.00;96854.72;4963389;28;20083;-41
2022/12/20 09:20:17;;;;;;;36.30;21.45;;;;;;;7.40;100.00;96859.13;4964123;28;20078;-46
2022/12/20 09:22:45;;;;;;;33.78;21.77;;;;;;;6.32;100.00;96855.59;4962554;28;20086;-45
2022/12/20 09:25:14;;;;;;;38.10;21.42;;;;;;;7.13;100.00;96844.50;4959579;28;20074;-46
2022/12/20 09:27:44;;;;;;;35.50;21.48;;;;;;;6.67;100.00;96831.28;4956897;28;20093;-44
2022/12/20 09:30:12;;;;;;;35.08;21.02;;;;;;;7.26;100.00;96828.69;4965507;28;20545;-44
2022/12/20 09:32:41;;;;;;;36.72;22.40;;;;;;;7.16;100.00;96830.31;4964206;28;20082;-43
2022/12/20 09:35:09;;;;;;;37.03;22.17;;;;;;;6.86;100.00;96831.63;4956672;28;20105;-42
2022/12/20 09:37:38;;;;;;;39.75;23.15;;;;;;;7.28;100.00;96813.66;4960837;28;20094;-43
2022/12/20 09:40:08;;;;;;;41.53;24.70;;;;;;;7.90;100.00;96807.16;4955074;28;20554;-50
2022/12/20 09:42:36;;;;;;;41.47;24.60;;;;;;;7.69;100.00;96807.03;4970106;28;20088;-46
2022/12/20 09:45:09;;;;;;;49.53;27.23;;;;;;;8.44;100.00;96800.34;4961879;28;20093;-42
2022/12/20 09:47:38;;;;;;;49.90;27.30;;;;;;;8.66;100.00;96802.91;4969150;28;20078;-46
2022/12/20 09:50:07;;;;;;;45.25;26.10;;;;;;;7.30;100.00;96806.50;4965004;28;20086;-45
2022/12/20 09:52:53;;;;;;;43.17;26.00;;;;;;;8.01;100.00;96804.53;4965168;28;20086;-48
2022/12/20 09:55:28;;;;;;;39.58;24.48;;;;;;;8.61;100.00;96794.56;4958940;28;20527;-42
2022/12/20 09:58:10;;;;;;;45.72;24.95;;;;;;;9.03;100.00;96784.13;4962734;28;20083;-42
2022/12/20 10:00:44;;;;;;;36.53;24.75;;;;;;;9.42;100.00;96776.47;4955914;28;20091;-43
2022/12/20 10:03:23;;;;;;;40.30;23.50;;;;;;;9.01;97.50;96786.03;4966708;28;20078;-41
2022/12/20 10:05:53;;;;;;;39.38;23.88;;;;;;;9.22;98.60;96783.41;4960374;28;20066;-42
2022/12/20 10:08:38;;;;;;;37.45;22.77;;;;;;;8.94;100.00;96787.50;4967445;28;20086;-41
2022/12/20 10:11:11;;;;;;;33.83;21.88;;;;;;;9.32;100.00;96788.75;4954671;28;20136;-45
2022/12/20 10:13:51;;;;;;;36.20;22.55;;;;;;;9.51;94.05;96787.06;4955405;28;20094;-47
2022/12/20 10:16:33;;;;;;;36.17;22.83;;;;;;;9.43;97.38;96783.44;4958674;28;20075;-42
2022/12/20 10:19:13;;;;;;;38.92;22.52;;;;;;;9.04;100.00;96773.44;4959881;28;20078;-41
2022/12/20 10:21:47;;;;;;;37.35;23.85;;;;;;;8.70;100.00;96771.94;4962017;28;20086;-42
2022/12/20 10:24:18;;;;;;;38.92;23.17;;;;;;;8.96;100.00;96768.00;4959690;28;20090;-42
2022/12/20 10:26:49;;;;;;;37.75;23.23;;;;;;;9.29;100.00;96766.16;4964706;28;20082;-45
2022/12/20 10:29:18;;;;;;;39.08;23.90;;;;;;;9.37;100.00;96768.16;4953073;28;20091;-42
2022/12/20 10:31:49;;;;;;;37.72;22.60;;;;;;;9.41;100.00;96765.13;4962892;28;20085;-48
2022/12/20 10:34:17;;;;;;;36.80;23.00;;;;;;;9.70;99.89;96769.69;4954585;28;20479;-42
2022/12/20 10:36:46;;;;;;;38.83;21.77;;;;;;;10.02;93.42;96755.56;4969320;28;20089;-43
2022/12/20 10:39:14;;;;;;;34.55;21.65;;;;;;;10.18;92.95;96748.78;4958136;28;20164;-42
2022/12/20 10:41:50;;;;;;;37.45;21.95;;;;;;;10.43;88.27;96739.59;4958418;28;20082;-41
2022/12/20 10:44:23;;;;;;;38.65;22.73;;;;;;;10.59;83.79;96733.75;4959826;28;20093;-46
2022/12/20 10:46:55;;;;;;;38.03;23.38;;;;;;;10.19;84.19;96741.75;4955424;28;20070;-41
2022/12/20 10:49:30;;;;;;;36.90;22.92;;;;;;;10.18;90.59;96730.34;4961883;28;20086;-45
2022/12/20 10:52:00;;;;;;;40.08;23.42;;;;;;;9.95;93.95;96727.09;4958356;28;20089;-42
2022/12/20 10:54:32;;;;;;;37.22;23.60;;;;;;;9.76;100.00;96724.41;4957913;28;20094;-41
2022/12/20 10:57:02;;;;;;;35.00;22.67;;;;;;;10.12;99.45;96716.91;4951712;28;20074;-41
2022/12/20 10:59:34;;;;;;;38.23;24.40;;;;;;;9.86;99.71;96713.91;4961940;28;20090;-45
2022/12/20 11:02:24;;;;;;;35.70;22.17;;;;;;;9.69;100.00;96710.09;4962792;28;20520;-44
2022/12/20 11:04:59;;;;;;;35.70;22.05;;;;;;;9.66;100.00;96705.09;4958671;28;20090;-44
2022/12/20 11:07:30;;;;;;;36.03;21.88;;;;;;;9.60;100.00;96702.97;4969732;28;20583;-44
2022/12/20 11:10:00;;;;;;;33.30;20.98;;;;;;;9.58;100.00;96703.13;4958246;28;20093;-44
2022/12/20 11:12:29;;;;;;;35.30;21.10;;;;;;;9.17;100.00;96704.03;4960082;28;20087;-45
2022/12/20 11:15:08;;;;;;;33.08;20.83;;;;;;;9.69;100.00;96689.84;4963474;28;20640;-46
2022/12/20 11:17:41;;;;;;;36.57;21.60;;;;;;;10.01;100.00;96686.19;4963927;28;20086;-44
2022/12/20 11:20:22;;;;;;;35.15;22.30;;;;;;;10.06;100.00;96688.44;4956320;28;20539;-44
2022/12/20 11:22:57;;;;;;;37.75;23.63;;;;;;;10.44;95.42;96670.06;4969572;28;21691;-47
2022/12/20 11:25:38;;;;;;;36.05;21.83;;;;;;;10.54;92.67;96667.44;4957929;28;20085;-44
2022/12/20 11:28:26;;;;;;;34.63;22.38;;;;;;;10.86;92.00;96677.66;4975232;28;20078;-41
2022/12/20 11:31:03;;;;;;;33.63;21.42;;;;;;;10.75;90.47;96684.91;4956275;28;20087;-45
2022/12/20 11:33:45;;;;;;;34.85;21.13;;;;;;;10.80;87.86;96677.41;4965011;28;20049;-44
2022/12/20 11:36:18;;;;;;;34.22;21.13;;;;;;;10.68;88.02;96664.38;4962369;28;20091;-50
2022/12/20 11:38:51;;;;;;;35.53;21.58;;;;;;;10.38;92.92;96660.06;4959400;28;20082;-43
2022/12/20 11:41:25;;;;;;;34.90;21.65;;;;;;;10.43;91.05;96652.59;4957815;28;20102;-43
2022/12/20 11:44:07;;;;;;;35.20;21.20;;;;;;;10.33;95.90;96651.75;4961837;28;20086;-45